createdAt,value
2022-08-17T00:02:09.828Z,100678.06
2022-08-17T00:04:51.226Z,100678.63
2022-08-17T00:07:17.872Z,100678.38
2022-08-17T00:09:44.489Z,100676.72
2022-08-17T00:12:41.652Z,100673.16
2022-08-17T00:14:57.893Z,100677.44
2022-08-17T00:17:24.523Z,100678.06
2022-08-17T00:19:51.110Z,100684.34
2022-08-17T00:22:31.087Z,100685.19
2022-08-17T00:25:02.961Z,100682.91
2022-08-17T00:27:29.572Z,100689.81
2022-08-17T00:29:56.294Z,100680.41
2022-08-17T00:33:14.005Z,100680.06
2022-08-17T00:35:13.198Z,100677.00
2022-08-17T00:37:40.376Z,100677.25
2022-08-17T00:40:09.969Z,100679.25
2022-08-17T00:42:37.490Z,100679.84
2022-08-17T00:45:06.591Z,100677.03
2022-08-17T00:47:33.688Z,100673.31
2022-08-17T00:50:00.569Z,100671.97
2022-08-17T00:52:35.470Z,100674.38
2022-08-17T00:55:03.201Z,100678.69
2022-08-17T00:57:35.042Z,100678.19
2022-08-17T01:00:15.974Z,100689.38
2022-08-17T01:02:45.337Z,100678.91
2022-08-17T01:05:19.008Z,100687.22
2022-08-17T01:07:47.999Z,100693.66
2022-08-17T01:10:58.269Z,100683.19
2022-08-17T01:13:04.067Z,100688.19
2022-08-17T01:15:35.036Z,100684.00
2022-08-17T01:18:02.468Z,100691.28
2022-08-17T01:20:29.586Z,100690.06
2022-08-17T01:22:56.212Z,100688.31
2022-08-17T01:25:23.158Z,100689.63
2022-08-17T01:27:50.056Z,100692.56
2022-08-17T01:30:56.850Z,100688.38
2022-08-17T01:33:04.693Z,100681.16
2022-08-17T01:35:31.885Z,100691.97
2022-08-17T01:37:58.539Z,100695.44
2022-08-17T01:40:43.404Z,100696.16
2022-08-17T01:43:37.201Z,100698.28
2022-08-17T01:46:04.341Z,100694.47
2022-08-17T01:48:33.483Z,100701.38
2022-08-17T01:51:00.730Z,100686.63
2022-08-17T01:53:39.845Z,100699.09
2022-08-17T01:56:10.771Z,100697.41
2022-08-17T01:58:38.460Z,100696.00
2022-08-17T02:01:06.659Z,100701.72
2022-08-17T02:03:35.637Z,100701.00
2022-08-17T02:06:03.360Z,100694.00
2022-08-17T02:08:38.665Z,100701.13
2022-08-17T02:11:13.779Z,100704.19
2022-08-17T02:13:40.520Z,100707.41
2022-08-17T02:16:07.503Z,100700.06
2022-08-17T02:18:34.186Z,100697.56
2022-08-17T02:21:00.946Z,100698.41
2022-08-17T02:23:30.691Z,100698.63
2022-08-17T02:26:00.204Z,100704.69
2022-08-17T02:28:28.528Z,100698.41
2022-08-17T02:31:00.992Z,100701.97
2022-08-17T02:33:41.776Z,100702.78
2022-08-17T02:36:11.942Z,100698.16
2022-08-17T02:38:39.854Z,100698.16
2022-08-17T02:41:06.765Z,100695.09
2022-08-17T02:43:33.444Z,100697.44
2022-08-17T02:46:00.191Z,100691.28
2022-08-17T02:48:30.700Z,100692.69
2022-08-17T02:51:00.136Z,100694.25
2022-08-17T02:53:27.477Z,100687.47
2022-08-17T02:56:00.312Z,100687.47
2022-08-17T02:58:34.635Z,100693.41
2022-08-17T03:01:07.220Z,100691.38
2022-08-17T03:03:35.163Z,100691.63
2022-08-17T03:06:02.193Z,100696.16
2022-08-17T03:08:29.001Z,100700.78
2022-08-17T03:10:56.056Z,100693.84
2022-08-17T03:13:22.855Z,100692.88
2022-08-17T03:15:49.499Z,100691.34
2022-08-17T03:18:25.335Z,100703.66
2022-08-17T03:20:54.867Z,100703.66
2022-08-17T03:23:23.679Z,100701.41
2022-08-17T03:25:52.974Z,100705.34
2022-08-17T03:28:20.476Z,100703.22
2022-08-17T03:30:47.260Z,100705.69
2022-08-17T03:33:14.196Z,100701.06
2022-08-17T03:35:41.792Z,100701.88
2022-08-17T03:38:12.765Z,100702.81
2022-08-17T03:40:57.565Z,100706.63
2022-08-17T03:43:30.489Z,100704.63
2022-08-17T03:46:28.980Z,100700.22
2022-08-17T03:49:25.216Z,100696.16
2022-08-17T03:52:11.024Z,100701.03
2022-08-17T03:54:56.243Z,100697.34
2022-08-17T03:57:22.871Z,100694.50
2022-08-17T03:59:49.618Z,100697.59
2022-08-17T04:02:21.381Z,100701.03
2022-08-17T04:04:51.336Z,100696.50
2022-08-17T04:07:19.920Z,100698.78
2022-08-17T04:09:46.508Z,100692.84
2022-08-17T04:12:16.195Z,100698.19
2022-08-17T04:14:53.070Z,100704.28
2022-08-17T04:17:26.293Z,100699.66
2022-08-17T04:19:53.559Z,100705.94
2022-08-17T04:22:32.401Z,100702.25
2022-08-17T04:25:18.073Z,100707.03
2022-08-17T04:27:44.717Z,100697.38
2022-08-17T04:30:12.793Z,100706.78
2022-08-17T04:33:10.963Z,100702.38
2022-08-17T04:35:44.198Z,100704.88
2022-08-17T04:38:14.016Z,100709.59
2022-08-17T04:40:59.561Z,100703.47
2022-08-17T04:43:31.048Z,100704.88
2022-08-17T04:46:00.625Z,100712.56
2022-08-17T04:48:36.499Z,100712.94
2022-08-17T04:51:07.214Z,100710.44
2022-08-17T04:53:33.833Z,100717.44
2022-08-17T04:56:00.462Z,100724.91
2022-08-17T04:58:27.108Z,100726.13
2022-08-17T05:00:53.830Z,100726.56
2022-08-17T05:03:20.520Z,100722.19
2022-08-17T05:05:50.118Z,100734.31
2022-08-17T05:08:18.998Z,100726.47
2022-08-17T05:10:46.941Z,100735.16
2022-08-17T05:13:20.374Z,100738.97
2022-08-17T05:15:49.303Z,100733.94
2022-08-17T05:18:17.470Z,100738.47
2022-08-17T05:20:44.135Z,100736.69
2022-08-17T05:23:13.587Z,100740.03
2022-08-17T05:25:47.694Z,100739.16
2022-08-17T05:28:16.238Z,100740.72
2022-08-17T05:30:44.641Z,100754.72
2022-08-17T05:33:17.434Z,100744.63
2022-08-17T05:35:47.651Z,100741.06
2022-08-17T05:38:15.590Z,100741.22
2022-08-17T05:40:43.706Z,100735.41
2022-08-17T05:43:16.513Z,100750.47
2022-08-17T05:45:59.994Z,100741.94
2022-08-17T05:48:35.458Z,100745.75
2022-08-17T05:51:20.546Z,100748.28
2022-08-17T05:54:17.022Z,100753.84
2022-08-17T05:56:43.614Z,100755.59
2022-08-17T05:59:29.485Z,100754.41
2022-08-17T06:01:56.024Z,100759.31
2022-08-17T06:04:31.497Z,100750.66
2022-08-17T06:07:07.212Z,100763.22
2022-08-17T06:09:44.640Z,100762.78
2022-08-17T06:12:30.117Z,100759.34
2022-08-17T06:15:19.480Z,100760.44
2022-08-17T06:17:46.674Z,100768.97
2022-08-17T06:20:15.937Z,100761.78
2022-08-17T06:22:49.711Z,100761.50
2022-08-17T06:25:22.622Z,100766.75
2022-08-17T06:27:54.236Z,100775.53
2022-08-17T06:30:27.195Z,100764.34
2022-08-17T06:33:00.374Z,100762.69
2022-08-17T06:36:03.085Z,100763.41
2022-08-17T06:38:53.256Z,100764.94
2022-08-17T06:41:42.938Z,100771.84
2022-08-17T06:44:43.583Z,100776.50
2022-08-17T06:47:34.471Z,100764.22
2022-08-17T06:50:12.067Z,100775.16
2022-08-17T06:53:09.296Z,100777.66
2022-08-17T06:55:45.656Z,100773.84
2022-08-17T06:58:16.326Z,100768.38
2022-08-17T07:00:47.652Z,100770.63
2022-08-17T07:03:28.222Z,100770.28
2022-08-17T07:06:02.849Z,100780.28
2022-08-17T07:08:38.329Z,100780.50
2022-08-17T07:11:46.430Z,100780.50
2022-08-17T07:14:53.278Z,100786.78
2022-08-17T07:17:22.469Z,100786.34
2022-08-17T07:20:16.144Z,100779.78
2022-08-17T07:22:59.871Z,100786.19
2022-08-17T07:25:28.612Z,100784.53
2022-08-17T07:27:59.724Z,100788.91
2022-08-17T07:30:28.115Z,100791.19
2022-08-17T07:32:59.470Z,100797.38
2022-08-17T07:35:37.629Z,100796.88
2022-08-17T07:38:30.637Z,100794.59
2022-08-17T07:40:57.917Z,100794.28
2022-08-17T07:43:47.224Z,100796.38
2022-08-17T07:46:45.817Z,100792.34
2022-08-17T07:49:14.905Z,100784.59
2022-08-17T07:51:45.557Z,100790.91
2022-08-17T07:54:15.163Z,100789.25
2022-08-17T07:56:47.711Z,100789.50
2022-08-17T07:59:23.889Z,100785.91
2022-08-17T08:01:57.980Z,100782.59
2022-08-17T08:05:01.345Z,100780.34
2022-08-17T08:07:39.492Z,100784.50
2022-08-17T08:10:11.052Z,100777.09
2022-08-17T08:12:41.489Z,100778.19
2022-08-17T08:15:22.249Z,100786.97
2022-08-17T08:17:54.095Z,100783.66
2022-08-17T08:20:52.080Z,100777.59
2022-08-17T08:23:22.796Z,100790.47
2022-08-17T08:26:18.454Z,100795.59
2022-08-17T08:29:19.668Z,100796.28
2022-08-17T08:32:08.034Z,100798.41
2022-08-17T08:34:54.748Z,100788.63
2022-08-17T08:37:35.776Z,100792.81
2022-08-17T08:40:20.492Z,100794.81
2022-08-17T08:43:28.559Z,100783.03
2022-08-17T08:46:02.776Z,100778.16
2022-08-17T08:48:58.007Z,100782.47
2022-08-17T08:51:55.355Z,100784.56
2022-08-17T08:54:48.493Z,100780.50
2022-08-17T08:57:47.116Z,100777.53
2022-08-17T09:00:17.715Z,100774.28
2022-08-17T09:03:07.370Z,100775.94
2022-08-17T09:05:37.053Z,100777.13
2022-08-17T09:08:23.359Z,100779.75
2022-08-17T09:11:22.537Z,100780.13
2022-08-17T09:14:17.222Z,100779.28
2022-08-17T09:17:03.736Z,100779.88
2022-08-17T09:19:43.462Z,100780.19
2022-08-17T09:22:26.204Z,100775.66
2022-08-17T09:24:57.228Z,100768.38
2022-08-17T09:27:32.072Z,100769.56
2022-08-17T09:30:04.398Z,100768.91
2022-08-17T09:32:43.953Z,100766.66
2022-08-17T09:35:17.568Z,100766.28
2022-08-17T09:38:22.607Z,100769.59
2022-08-17T09:40:52.215Z,100762.44
2022-08-17T09:43:52.247Z,100763.72
2022-08-17T09:46:28.494Z,100760.88
2022-08-17T09:49:25.467Z,100777.22
2022-08-17T09:51:57.404Z,100768.78
2022-08-17T09:54:44.838Z,100773.16
2022-08-17T09:57:37.165Z,100769.78
2022-08-17T10:00:13.235Z,100761.31
2022-08-17T10:02:57.939Z,100763.97
2022-08-17T10:05:45.424Z,100759.06
2022-08-17T10:08:46.927Z,100758.53
2022-08-17T10:12:01.022Z,100755.91
2022-08-17T10:14:43.819Z,100751.66
2022-08-17T10:17:25.326Z,100754.22
2022-08-17T10:20:10.562Z,100754.47
2022-08-17T10:23:06.210Z,100748.09
2022-08-17T10:25:56.790Z,100748.66
2022-08-17T10:28:30.388Z,100759.13
2022-08-17T10:31:30.797Z,100756.47
2022-08-17T10:34:05.329Z,100755.56
2022-08-17T10:37:06.153Z,100756.88
2022-08-17T10:40:09.180Z,100758.31
2022-08-17T10:43:00.695Z,100758.81
2022-08-17T10:46:30.863Z,100755.31
2022-08-17T10:49:24.066Z,100750.66
2022-08-17T10:51:54.490Z,100744.00
2022-08-17T10:55:02.225Z,100741.69
2022-08-17T10:57:49.505Z,100753.25
2022-08-17T11:00:18.945Z,100752.69
2022-08-17T11:02:54.076Z,100756.81
2022-08-17T11:05:43.759Z,100749.09
2022-08-17T11:08:33.571Z,100754.56
2022-08-17T11:11:37.570Z,100753.28
2022-08-17T11:14:08.656Z,100746.50
2022-08-17T11:17:20.927Z,100741.53
2022-08-17T11:20:13.002Z,100748.19
2022-08-17T11:22:50.110Z,100744.09
2022-08-17T11:25:20.223Z,100742.44
2022-08-17T11:27:53.828Z,100738.19
2022-08-17T11:30:51.107Z,100732.72
2022-08-17T11:33:29.859Z,100727.00
2022-08-17T11:36:18.306Z,100729.81
2022-08-17T11:39:09.734Z,100733.34
2022-08-17T11:41:48.794Z,100731.38
2022-08-17T11:44:37.601Z,100726.19
2022-08-17T11:48:23.779Z,100728.88
2022-08-17T11:51:31.150Z,100719.03
2022-08-17T11:54:34.613Z,100718.31
2022-08-17T11:57:27.332Z,100716.47
2022-08-17T12:00:00.456Z,100724.19
2022-08-17T12:02:29.790Z,100715.16
2022-08-17T12:05:10.340Z,100709.50
2022-08-17T12:08:12.504Z,100712.50
2022-08-17T12:10:58.111Z,100717.41
2022-08-17T12:13:30.491Z,100711.97
2022-08-17T12:16:05.697Z,100705.50
2022-08-17T12:18:37.385Z,100704.69
2022-08-17T12:21:06.563Z,100711.06
2022-08-17T12:23:47.302Z,100709.28
2022-08-17T12:26:30.217Z,100720.88
2022-08-17T12:29:02.697Z,100708.50
2022-08-17T12:31:44.269Z,100713.78
2022-08-17T12:34:41.957Z,100715.13
2022-08-17T12:37:29.674Z,100710.56
2022-08-17T12:40:01.051Z,100704.75
2022-08-17T12:42:37.475Z,100717.81
2022-08-17T12:45:07.513Z,100712.00
2022-08-17T12:47:37.224Z,100710.00
2022-08-17T12:50:08.179Z,100710.78
2022-08-17T12:52:58.518Z,100708.75
2022-08-17T12:55:33.762Z,100700.66
2022-08-17T12:58:02.201Z,100697.41
2022-08-17T13:00:37.988Z,100695.34
2022-08-17T13:03:09.486Z,100691.63
2022-08-17T13:05:54.238Z,100693.28
2022-08-17T13:08:36.094Z,100687.28
2022-08-17T13:11:09.936Z,100682.72
2022-08-17T13:13:40.589Z,100681.06
2022-08-17T13:16:14.354Z,100679.75
2022-08-17T13:18:46.346Z,100675.72
2022-08-17T13:21:18.955Z,100678.75
2022-08-17T13:24:05.688Z,100676.47
2022-08-17T13:27:07.887Z,100680.69
2022-08-17T13:29:39.297Z,100678.38
2022-08-17T13:32:13.013Z,100677.47
2022-08-17T13:35:12.415Z,100677.84
2022-08-17T13:37:41.058Z,100678.84
2022-08-17T13:40:09.370Z,100681.00
2022-08-17T13:42:52.381Z,100680.06
2022-08-17T13:45:36.022Z,100680.53
2022-08-17T13:48:11.856Z,100682.81
2022-08-17T13:50:59.590Z,100671.81
2022-08-17T13:53:47.581Z,100670.25
2022-08-17T13:56:39.044Z,100674.28
2022-08-17T13:59:16.007Z,100667.78
2022-08-17T14:01:51.074Z,100675.16
2022-08-17T14:04:22.805Z,100666.81
2022-08-17T14:07:12.975Z,100668.34
2022-08-17T14:09:50.330Z,100672.06
2022-08-17T14:12:21.701Z,100675.56
2022-08-17T14:14:49.550Z,100676.91
2022-08-17T14:17:16.403Z,100670.59
2022-08-17T14:19:43.131Z,100673.84
2022-08-17T14:22:18.354Z,100671.31
2022-08-17T14:24:45.852Z,100672.13
2022-08-17T14:27:12.482Z,100660.94
2022-08-17T14:29:41.080Z,100658.69
2022-08-17T14:32:20.933Z,100660.31
2022-08-17T14:34:49.607Z,100664.31
2022-08-17T14:37:20.954Z,100659.16
2022-08-17T14:39:47.717Z,100651.50
2022-08-17T14:42:15.509Z,100646.31
2022-08-17T14:44:42.111Z,100647.41
2022-08-17T14:47:14.936Z,100644.06
2022-08-17T14:49:42.205Z,100641.50
2022-08-17T14:52:12.290Z,100646.13
2022-08-17T14:54:43.752Z,100644.75
2022-08-17T14:57:25.720Z,100643.28
2022-08-17T14:59:59.713Z,100645.63
2022-08-17T15:02:31.060Z,100641.47
2022-08-17T15:05:06.040Z,100645.34
2022-08-17T15:07:32.730Z,100642.31
2022-08-17T15:10:01.506Z,100646.81
2022-08-17T15:12:33.225Z,100647.03
2022-08-17T15:15:04.700Z,100646.75
2022-08-17T15:17:45.080Z,100642.75
2022-08-17T15:20:33.301Z,100637.63
2022-08-17T15:22:59.967Z,100640.75
2022-08-17T15:25:29.227Z,100636.94
2022-08-17T15:27:56.104Z,100634.50
2022-08-17T15:30:23.681Z,100635.63
2022-08-17T15:32:55.115Z,100640.84
2022-08-17T15:35:27.858Z,100643.94
2022-08-17T15:37:57.195Z,100639.84
2022-08-17T15:40:25.167Z,100632.13
2022-08-17T15:42:52.021Z,100631.84
2022-08-17T15:45:24.632Z,100637.63
2022-08-17T15:47:52.547Z,100636.75
2022-08-17T15:50:19.674Z,100638.81
2022-08-17T15:52:47.508Z,100631.16
2022-08-17T15:55:15.359Z,100631.38
2022-08-17T15:57:42.210Z,100628.28
2022-08-17T16:00:09.784Z,100620.31
2022-08-17T16:03:32.004Z,100619.03
2022-08-17T16:05:25.173Z,100620.09
2022-08-17T16:07:52.614Z,100617.31
2022-08-17T16:10:19.727Z,100615.03
2022-08-17T16:12:48.085Z,100611.72
2022-08-17T16:15:16.223Z,100611.91
2022-08-17T16:17:42.945Z,100617.72
2022-08-17T16:20:20.097Z,100614.66
2022-08-17T16:22:48.409Z,100623.88
2022-08-17T16:25:53.026Z,100620.19
2022-08-17T16:28:12.686Z,100627.09
2022-08-17T16:30:39.590Z,100632.34
2022-08-17T16:33:06.214Z,100624.66
2022-08-17T16:35:33.805Z,100620.28
2022-08-17T16:38:00.504Z,100618.78
2022-08-17T16:40:29.492Z,100620.06
2022-08-17T16:42:57.999Z,100607.75
2022-08-17T16:45:36.891Z,100610.13
2022-08-17T16:48:04.477Z,100610.13
2022-08-17T16:50:32.186Z,100599.69
2022-08-17T16:53:10.945Z,100600.53
2022-08-17T16:55:38.577Z,100599.16
2022-08-17T16:58:06.693Z,100601.06
2022-08-17T17:00:33.756Z,100604.06
2022-08-17T17:03:18.922Z,100604.56
2022-08-17T17:06:06.462Z,100599.56
2022-08-17T17:09:11.320Z,100603.81
2022-08-17T17:11:48.084Z,100609.22
2022-08-17T17:14:20.478Z,100609.22
2022-08-17T17:17:22.682Z,100611.13
2022-08-17T17:20:00.658Z,100612.22
2022-08-17T17:22:36.136Z,100615.50
2022-08-17T17:25:02.744Z,100616.31
2022-08-17T17:27:42.531Z,100622.72
2022-08-17T17:30:09.094Z,100623.81
2022-08-17T17:33:19.182Z,100624.56
2022-08-17T17:35:56.904Z,100624.06
2022-08-17T17:38:40.744Z,100633.69
2022-08-17T17:41:25.969Z,100626.63
2022-08-17T17:44:02.925Z,100627.06
2022-08-17T17:46:38.254Z,100616.91
2022-08-17T17:49:06.114Z,100624.81
2022-08-17T17:52:08.730Z,100619.84
2022-08-17T17:55:17.653Z,100625.56
2022-08-17T17:58:21.273Z,100624.22
2022-08-17T18:01:06.406Z,100621.22
2022-08-17T18:04:08.289Z,100625.81
2022-08-17T18:07:17.905Z,100628.00
2022-08-17T18:10:29.836Z,100637.56
2022-08-17T18:13:21.411Z,100640.03
2022-08-17T18:15:54.004Z,100644.44
2022-08-17T18:18:37.699Z,100642.44
2022-08-17T18:21:15.814Z,100642.69
2022-08-17T18:24:00.304Z,100634.00
2022-08-17T18:26:32.947Z,100631.16
2022-08-17T18:29:01.193Z,100623.59
2022-08-17T18:31:27.949Z,100634.00
2022-08-17T18:34:45.424Z,100631.00
2022-08-17T18:37:09.513Z,100633.47
2022-08-17T18:39:39.858Z,100635.38
2022-08-17T18:42:25.813Z,100638.38
2022-08-17T18:44:55.320Z,100641.13
2022-08-17T18:47:28.873Z,100642.53
2022-08-17T18:49:57.981Z,100648.00
2022-08-17T18:52:28.495Z,100648.00
2022-08-17T18:55:04.302Z,100640.88
2022-08-17T18:57:59.730Z,100643.88
2022-08-17T19:00:39.649Z,100641.34
2022-08-17T19:03:15.294Z,100649.84
2022-08-17T19:05:43.382Z,100645.94
2022-08-17T19:08:33.183Z,100639.69
2022-08-17T19:11:07.268Z,100637.22
2022-08-17T19:13:42.916Z,100650.44
2022-08-17T19:16:15.681Z,100654.22
2022-08-17T19:18:52.534Z,100659.97
2022-08-17T19:21:30.432Z,100653.91
2022-08-17T19:24:20.031Z,100654.75
2022-08-17T19:26:55.972Z,100652.81
2022-08-17T19:29:50.052Z,100648.44
2022-08-17T19:32:20.541Z,100648.38
2022-08-17T19:34:48.077Z,100645.03
2022-08-17T19:37:33.362Z,100655.50
2022-08-17T19:40:29.299Z,100643.88
2022-08-17T19:43:21.539Z,100649.34
2022-08-17T19:46:06.024Z,100639.22
2022-08-17T19:48:57.450Z,100644.13
2022-08-17T19:51:57.478Z,100645.22
2022-08-17T19:54:31.394Z,100635.03
2022-08-17T19:57:18.389Z,100642.16
2022-08-17T19:59:58.039Z,100633.69
2022-08-17T20:02:37.766Z,100638.59
2022-08-17T20:05:11.641Z,100635.25
2022-08-17T20:07:44.316Z,100640.97
2022-08-17T20:10:23.589Z,100642.38
2022-08-17T20:12:53.185Z,100642.63
2022-08-17T20:15:30.696Z,100644.53
2022-08-17T20:18:05.137Z,100639.06
2022-08-17T20:20:56.376Z,100634.66
2022-08-17T20:23:22.912Z,100634.91
2022-08-17T20:26:30.341Z,100631.09
2022-08-17T20:29:37.705Z,100626.97
2022-08-17T20:32:20.920Z,100628.63
2022-08-17T20:34:47.919Z,100621.47
2022-08-17T20:37:14.549Z,100631.88
2022-08-17T20:39:52.686Z,100625.22
2022-08-17T20:42:22.093Z,100628.31
2022-08-17T20:44:54.483Z,100635.94
2022-08-17T20:47:33.997Z,100629.63
2022-08-17T20:50:33.031Z,100632.38
2022-08-17T20:53:03.277Z,100624.88
2022-08-17T20:55:36.378Z,100629.84
2022-08-17T20:58:24.558Z,100624.63
2022-08-17T21:00:57.641Z,100617.50
2022-08-17T21:03:24.407Z,100619.63
2022-08-17T21:06:00.382Z,100623.19
2022-08-17T21:08:54.569Z,100631.41
2022-08-17T21:11:57.185Z,100628.34
2022-08-17T21:14:29.694Z,100634.91
2022-08-17T21:17:29.856Z,100627.78
2022-08-17T21:20:12.069Z,100629.91
2022-08-17T21:23:15.834Z,100634.56
2022-08-17T21:25:49.118Z,100638.63
2022-08-17T21:28:33.797Z,100640.78
2022-08-17T21:31:08.538Z,100648.69
2022-08-17T21:33:39.942Z,100639.66
2022-08-17T21:36:12.626Z,100634.75
2022-08-17T21:38:48.817Z,100638.81
2022-08-17T21:41:29.727Z,100645.84
2022-08-17T21:44:11.770Z,100643.69
2022-08-17T21:46:42.932Z,100650.25
2022-08-17T21:49:17.808Z,100645.00
2022-08-17T21:51:51.762Z,100648.84
2022-08-17T21:54:34.657Z,100645.28
2022-08-17T21:57:04.446Z,100645.78
2022-08-17T21:59:35.714Z,100650.16
2022-08-17T22:02:06.122Z,100651.81
2022-08-17T22:04:34.733Z,100654.06
2022-08-17T22:07:04.945Z,100657.28
2022-08-17T22:09:46.014Z,100650.66
2022-08-17T22:12:20.785Z,100657.44
2022-08-17T22:15:00.274Z,100662.91
2022-08-17T22:17:30.002Z,100657.94
2022-08-17T22:20:04.696Z,100665.41
2022-08-17T22:22:57.948Z,100650.88
2022-08-17T22:25:26.731Z,100658.19
2022-08-17T22:27:57.075Z,100659.03
2022-08-17T22:30:39.781Z,100659.59
2022-08-17T22:33:28.011Z,100671.06
2022-08-17T22:36:22.116Z,100665.25
2022-08-17T22:38:50.161Z,100668.81
2022-08-17T22:41:35.024Z,100665.06
2022-08-17T22:44:31.962Z,100664.75
2022-08-17T22:47:00.497Z,100668.56
2022-08-17T22:49:32.567Z,100665.25
2022-08-17T22:52:22.247Z,100668.81
2022-08-17T22:55:17.865Z,100675.84
2022-08-17T22:58:08.311Z,100669.28
2022-08-17T23:00:39.304Z,100668.72
2022-08-17T23:03:16.214Z,100662.41
2022-08-17T23:05:47.319Z,100661.91
2022-08-17T23:08:21.044Z,100663.22
2022-08-17T23:10:48.603Z,100659.91
2022-08-17T23:13:15.367Z,100659.09
2022-08-17T23:15:43.030Z,100655.78
2022-08-17T23:18:09.681Z,100662.06
2022-08-17T23:20:41.763Z,100659.91
2022-08-17T23:23:10.196Z,100659.09
2022-08-17T23:25:37.441Z,100658.50
2022-08-17T23:28:06.557Z,100648.06
2022-08-17T23:30:37.003Z,100661.50
2022-08-17T23:33:07.477Z,100652.72
2022-08-17T23:35:39.721Z,100660.91
2022-08-17T23:38:09.163Z,100659.47
2022-08-17T23:40:35.844Z,100664.38
2022-08-17T23:43:11.455Z,100653.41
2022-08-17T23:45:55.216Z,100655.91
2022-08-17T23:48:35.244Z,100664.94
2022-08-17T23:51:05.834Z,100660.72
2022-08-17T23:53:34.865Z,100654.91
2022-08-17T23:56:09.696Z,100657.75
2022-08-17T23:58:44.915Z,100661.44
